createdAt,value
2022-08-26T00:00:12.316Z,89.36
2022-08-26T00:00:45.475Z,89.78
2022-08-26T00:01:17.968Z,89.58
2022-08-26T00:01:56.978Z,89.66
2022-08-26T00:02:28.769Z,89.77
2022-08-26T00:03:01.125Z,89.71
2022-08-26T00:03:32.742Z,89.89
2022-08-26T00:04:04.418Z,89.75
2022-08-26T00:04:36.100Z,89.65
2022-08-26T00:05:08.000Z,89.59
2022-08-26T00:05:40.604Z,89.75
2022-08-26T00:06:13.992Z,89.60
2022-08-26T00:06:52.256Z,90.06
2022-08-26T00:07:24.084Z,89.95
2022-08-26T00:07:55.810Z,89.69
2022-08-26T00:08:27.394Z,90.10
2022-08-26T00:08:59.312Z,89.99
2022-08-26T00:09:30.918Z,90.05
2022-08-26T00:10:02.511Z,90.04
2022-08-26T00:10:34.408Z,90.44
2022-08-26T00:11:06.489Z,90.15
2022-08-26T00:11:39.338Z,89.98
2022-08-26T00:12:12.381Z,90.11
2022-08-26T00:12:44.192Z,90.24
2022-08-26T00:13:16.483Z,90.16
2022-08-26T00:13:51.264Z,89.99
2022-08-26T00:14:31.068Z,90.04
2022-08-26T00:15:04.698Z,90.20
2022-08-26T00:15:37.863Z,90.42
2022-08-26T00:16:10.676Z,90.32
2022-08-26T00:16:48.070Z,90.00
2022-08-26T00:17:20.548Z,90.28
2022-08-26T00:17:53.664Z,90.34
2022-08-26T00:18:25.931Z,90.36
2022-08-26T00:18:57.946Z,90.05
2022-08-26T00:19:29.807Z,89.83
2022-08-26T00:20:01.564Z,89.95
2022-08-26T00:20:33.797Z,89.88
2022-08-26T00:21:06.752Z,89.91
2022-08-26T00:21:38.312Z,89.84
2022-08-26T00:22:10.360Z,89.68
2022-08-26T00:22:43.516Z,89.68
2022-08-26T00:23:15.324Z,89.60
2022-08-26T00:23:48.092Z,89.63
2022-08-26T00:24:21.717Z,89.61
2022-08-26T00:24:53.323Z,89.61
2022-08-26T00:25:25.418Z,89.68
2022-08-26T00:25:57.559Z,89.47
2022-08-26T00:26:29.323Z,89.70
2022-08-26T00:27:00.932Z,89.52
2022-08-26T00:27:35.366Z,89.90
2022-08-26T00:28:07.437Z,89.86
2022-08-26T00:28:42.683Z,89.35
2022-08-26T00:29:14.863Z,89.37
2022-08-26T00:29:46.560Z,89.65
2022-08-26T00:30:22.848Z,89.65
2022-08-26T00:30:55.843Z,89.68
2022-08-26T00:31:27.456Z,89.63
2022-08-26T00:31:59.119Z,89.58
2022-08-26T00:32:31.352Z,89.48
2022-08-26T00:33:04.998Z,89.28
2022-08-26T00:33:37.419Z,89.36
2022-08-26T00:34:11.346Z,89.58
2022-08-26T00:34:43.942Z,89.87
2022-08-26T00:35:15.772Z,89.62
2022-08-26T00:35:47.970Z,89.66
2022-08-26T00:36:20.597Z,89.54
2022-08-26T00:36:52.245Z,89.57
2022-08-26T00:37:24.019Z,89.74
2022-08-26T00:37:57.908Z,90.18
2022-08-26T00:38:30.284Z,89.58
2022-08-26T00:39:01.958Z,89.63
2022-08-26T00:39:34.008Z,89.48
2022-08-26T00:40:08.098Z,89.36
2022-08-26T00:40:52.698Z,89.68
2022-08-26T00:41:24.400Z,89.73
2022-08-26T00:41:56.308Z,89.59
2022-08-26T00:42:28.716Z,89.33
2022-08-26T00:43:01.255Z,89.48
2022-08-26T00:43:47.614Z,89.86
2022-08-26T00:44:19.858Z,89.48
2022-08-26T00:44:51.470Z,89.12
2022-08-26T00:45:23.484Z,89.33
2022-08-26T00:46:00.871Z,89.20
2022-08-26T00:46:39.750Z,89.54
2022-08-26T00:47:27.898Z,89.63
2022-08-26T00:48:05.992Z,89.39
2022-08-26T00:48:39.943Z,89.62
2022-08-26T00:49:25.904Z,89.57
2022-08-26T00:49:59.118Z,89.76
2022-08-26T00:50:39.802Z,89.72
2022-08-26T00:51:18.930Z,89.64
2022-08-26T00:51:55.908Z,89.99
2022-08-26T00:52:28.172Z,89.58
2022-08-26T00:53:01.695Z,89.75
2022-08-26T00:53:39.364Z,89.74
2022-08-26T00:54:13.449Z,90.01
2022-08-26T00:55:02.566Z,89.86
2022-08-26T00:55:41.094Z,89.70
2022-08-26T00:56:26.510Z,89.98
2022-08-26T00:57:02.451Z,89.93
2022-08-26T00:57:36.300Z,90.10
2022-08-26T00:58:08.972Z,89.91
2022-08-26T00:58:43.134Z,89.60
2022-08-26T00:59:17.657Z,89.43
2022-08-26T00:59:54.451Z,89.85
2022-08-26T01:00:30.972Z,89.87
2022-08-26T01:01:02.865Z,89.65
2022-08-26T01:01:34.874Z,89.95
2022-08-26T01:02:06.787Z,89.84
2022-08-26T01:02:52.341Z,89.72
2022-08-26T01:03:26.141Z,89.72
2022-08-26T01:04:00.023Z,89.57
2022-08-26T01:04:35.204Z,90.06
2022-08-26T01:05:09.923Z,90.14
2022-08-26T01:05:42.100Z,90.22
2022-08-26T01:06:14.903Z,90.09
2022-08-26T01:06:49.249Z,89.91
2022-08-26T01:07:21.372Z,90.16
2022-08-26T01:07:53.185Z,90.25
2022-08-26T01:08:25.003Z,90.38
2022-08-26T01:08:56.616Z,90.47
2022-08-26T01:09:28.725Z,90.40
2022-08-26T01:10:05.052Z,90.39
2022-08-26T01:10:37.248Z,90.09
2022-08-26T01:11:09.571Z,90.49
2022-08-26T01:11:41.908Z,90.22
2022-08-26T01:12:15.031Z,90.40
2022-08-26T01:13:01.570Z,90.30
2022-08-26T01:13:36.834Z,90.42
2022-08-26T01:14:09.426Z,90.50
2022-08-26T01:14:41.239Z,90.54
2022-08-26T01:15:35.436Z,90.43
2022-08-26T01:16:11.347Z,90.40
2022-08-26T01:16:44.349Z,90.58
2022-08-26T01:17:16.361Z,90.72
2022-08-26T01:17:49.233Z,90.76
2022-08-26T01:18:21.115Z,90.92
2022-08-26T01:18:59.697Z,90.97
2022-08-26T01:19:37.852Z,90.70
2022-08-26T01:20:19.065Z,91.03
2022-08-26T01:21:14.247Z,91.10
2022-08-26T01:21:57.866Z,91.19
2022-08-26T01:23:01.617Z,91.25
2022-08-26T01:23:39.231Z,91.23
2022-08-26T01:24:12.008Z,91.43
2022-08-26T01:24:47.045Z,91.17
2022-08-26T01:25:21.216Z,91.29
2022-08-26T01:25:56.752Z,91.32
2022-08-26T01:26:41.335Z,91.51
2022-08-26T01:27:17.629Z,91.36
2022-08-26T01:27:50.391Z,91.34
2022-08-26T01:28:30.365Z,91.40
2022-08-26T01:29:05.580Z,91.41
2022-08-26T01:29:40.920Z,91.56
2022-08-26T01:30:13.421Z,91.56
2022-08-26T01:30:46.734Z,91.52
2022-08-26T01:31:24.917Z,91.65
2022-08-26T01:31:57.677Z,91.37
2022-08-26T01:32:33.128Z,91.35
2022-08-26T01:33:08.298Z,91.14
2022-08-26T01:34:03.521Z,91.41
2022-08-26T01:34:37.468Z,91.39
2022-08-26T01:35:09.712Z,91.24
2022-08-26T01:35:42.490Z,91.43
2022-08-26T01:36:15.201Z,91.12
2022-08-26T01:36:51.565Z,91.16
2022-08-26T01:37:27.328Z,91.41
2022-08-26T01:38:00.674Z,91.25
2022-08-26T01:38:33.837Z,91.56
2022-08-26T01:39:07.623Z,91.34
2022-08-26T01:39:40.514Z,91.26
2022-08-26T01:40:18.939Z,91.34
2022-08-26T01:40:51.372Z,91.50
2022-08-26T01:41:27.261Z,91.63
2022-08-26T01:42:03.372Z,91.31
2022-08-26T01:42:35.556Z,91.12
2022-08-26T01:43:10.951Z,91.30
2022-08-26T01:43:45.114Z,91.29
2022-08-26T01:44:22.394Z,91.24
2022-08-26T01:44:59.759Z,91.04
2022-08-26T01:45:34.456Z,91.66
2022-08-26T01:46:07.279Z,91.30
2022-08-26T01:46:43.457Z,91.44
2022-08-26T01:47:17.217Z,91.50
2022-08-26T01:47:56.880Z,91.29
2022-08-26T01:48:31.853Z,91.44
2022-08-26T01:49:06.792Z,91.42
2022-08-26T01:49:41.151Z,91.57
2022-08-26T01:50:27.887Z,91.49
2022-08-26T01:51:04.081Z,91.47
2022-08-26T01:51:40.034Z,91.46
2022-08-26T01:52:16.662Z,91.35
2022-08-26T01:52:54.340Z,91.46
2022-08-26T01:53:27.060Z,91.67
2022-08-26T01:54:00.340Z,91.51
2022-08-26T01:54:33.181Z,91.40
2022-08-26T01:55:06.256Z,91.52
2022-08-26T01:55:42.990Z,91.43
2022-08-26T01:56:15.460Z,91.44
2022-08-26T01:56:47.810Z,91.79
2022-08-26T01:57:21.133Z,91.58
2022-08-26T01:57:56.325Z,91.81
2022-08-26T01:58:36.225Z,91.57
2022-08-26T01:59:12.243Z,91.53
2022-08-26T01:59:44.201Z,91.70
2022-08-26T02:01:05.744Z,91.48
2022-08-26T02:01:37.657Z,91.62
2022-08-26T02:02:09.273Z,91.70
2022-08-26T02:02:47.890Z,91.80
2022-08-26T02:03:22.303Z,91.67
2022-08-26T02:04:24.254Z,91.60
2022-08-26T02:05:03.576Z,91.87
2022-08-26T02:05:35.156Z,91.97
2022-08-26T02:06:09.300Z,91.93
2022-08-26T02:06:42.551Z,91.88
2022-08-26T02:07:16.023Z,91.98
2022-08-26T02:07:50.809Z,91.79
2022-08-26T02:08:39.245Z,91.74
2022-08-26T02:09:12.422Z,91.74
2022-08-26T02:09:44.038Z,91.96
2022-08-26T02:10:15.793Z,91.98
2022-08-26T02:10:48.220Z,91.98
2022-08-26T02:11:21.207Z,91.91
2022-08-26T02:11:53.234Z,91.95
2022-08-26T02:12:26.119Z,91.99
2022-08-26T02:12:57.870Z,91.96
2022-08-26T02:13:33.162Z,91.99
2022-08-26T02:14:26.740Z,92.09
2022-08-26T02:15:01.749Z,92.01
2022-08-26T02:15:41.320Z,92.19
2022-08-26T02:16:15.628Z,92.07
2022-08-26T02:16:50.394Z,92.08
2022-08-26T02:17:39.764Z,92.06
2022-08-26T02:18:14.052Z,92.01
2022-08-26T02:18:47.009Z,91.93
2022-08-26T02:19:30.698Z,92.10
2022-08-26T02:20:03.738Z,91.92
2022-08-26T02:20:35.302Z,91.86
2022-08-26T02:21:07.850Z,92.03
2022-08-26T02:21:41.060Z,91.95
2022-08-26T02:22:19.886Z,92.07
2022-08-26T02:22:51.918Z,91.93
2022-08-26T02:23:24.485Z,91.99
2022-08-26T02:23:56.575Z,92.09
2022-08-26T02:24:30.627Z,92.09
2022-08-26T02:25:29.328Z,92.03
2022-08-26T02:26:10.183Z,91.95
2022-08-26T02:26:43.070Z,91.91
2022-08-26T02:27:16.547Z,91.93
2022-08-26T02:27:48.450Z,91.94
2022-08-26T02:28:20.082Z,92.10
2022-08-26T02:29:01.774Z,92.11
2022-08-26T02:29:37.992Z,92.01
2022-08-26T02:30:11.982Z,92.02
2022-08-26T02:30:43.941Z,92.07
2022-08-26T02:31:15.616Z,92.00
2022-08-26T02:31:48.518Z,92.20
2022-08-26T02:32:20.236Z,92.13
2022-08-26T02:32:52.166Z,92.06
2022-08-26T02:33:23.819Z,92.03
2022-08-26T02:33:56.081Z,91.89
2022-08-26T02:34:32.065Z,92.21
2022-08-26T02:35:04.171Z,92.04
2022-08-26T02:35:37.643Z,92.09
2022-08-26T02:36:10.358Z,92.05
2022-08-26T02:36:45.126Z,92.19
2022-08-26T02:37:17.703Z,92.12
2022-08-26T02:37:50.721Z,92.01
2022-08-26T02:38:22.313Z,92.01
2022-08-26T02:38:54.809Z,92.30
2022-08-26T02:39:29.456Z,92.19
2022-08-26T02:40:02.096Z,92.32
2022-08-26T02:40:38.135Z,92.24
2022-08-26T02:41:10.198Z,92.14
2022-08-26T02:41:45.016Z,92.26
2022-08-26T02:42:16.925Z,92.46
2022-08-26T02:42:49.043Z,92.74
2022-08-26T02:43:31.536Z,92.51
2022-08-26T02:44:07.164Z,92.66
2022-08-26T02:44:38.804Z,92.55
2022-08-26T02:45:11.166Z,92.64
2022-08-26T02:45:43.576Z,92.55
2022-08-26T02:46:21.486Z,92.77
2022-08-26T02:47:00.199Z,92.72
2022-08-26T02:47:33.458Z,92.57
2022-08-26T02:48:11.682Z,92.70
2022-08-26T02:48:43.664Z,92.81
2022-08-26T02:49:16.966Z,92.65
2022-08-26T02:49:48.845Z,92.64
2022-08-26T02:50:20.777Z,92.77
2022-08-26T02:50:52.325Z,92.69
2022-08-26T02:51:24.148Z,92.61
2022-08-26T02:51:56.266Z,92.47
2022-08-26T02:52:27.898Z,92.74
2022-08-26T02:53:00.407Z,92.79
2022-08-26T02:53:35.595Z,92.63
2022-08-26T02:54:07.552Z,92.77
2022-08-26T02:54:39.354Z,92.67
2022-08-26T02:55:11.131Z,92.59
2022-08-26T02:55:43.460Z,92.65
2022-08-26T02:56:15.174Z,92.57
2022-08-26T02:56:47.466Z,92.57
2022-08-26T02:57:19.535Z,92.59
2022-08-26T02:57:53.713Z,92.66
2022-08-26T02:58:25.273Z,92.66
2022-08-26T02:58:58.212Z,92.45
2022-08-26T02:59:29.750Z,92.52
2022-08-26T03:00:01.770Z,92.61
2022-08-26T03:00:37.785Z,92.57
2022-08-26T03:01:23.707Z,92.60
2022-08-26T03:01:56.257Z,92.74
2022-08-26T03:02:29.135Z,92.74
2022-08-26T03:03:00.837Z,92.78
2022-08-26T03:03:32.967Z,92.56
2022-08-26T03:04:07.533Z,92.65
2022-08-26T03:04:40.135Z,92.73
2022-08-26T03:05:12.688Z,92.61
2022-08-26T03:05:44.602Z,92.52
2022-08-26T03:06:16.264Z,92.55
2022-08-26T03:06:53.049Z,92.58
2022-08-26T03:07:26.816Z,92.81
2022-08-26T03:07:58.643Z,92.73
2022-08-26T03:08:33.364Z,92.64
2022-08-26T03:09:05.913Z,92.61
2022-08-26T03:09:37.474Z,92.63
2022-08-26T03:10:09.617Z,92.59
2022-08-26T03:10:41.190Z,92.52
2022-08-26T03:11:13.618Z,92.61
2022-08-26T03:11:47.157Z,92.72
2022-08-26T03:12:20.371Z,92.96
2022-08-26T03:12:52.587Z,92.77
2022-08-26T03:13:24.998Z,92.76
2022-08-26T03:13:56.581Z,92.75
2022-08-26T03:14:28.918Z,92.60
2022-08-26T03:15:01.256Z,92.72
2022-08-26T03:15:33.194Z,92.64
2022-08-26T03:16:06.113Z,92.57
2022-08-26T03:16:37.878Z,92.58
2022-08-26T03:17:09.642Z,92.63
2022-08-26T03:17:42.216Z,92.64
2022-08-26T03:18:16.058Z,92.62
2022-08-26T03:18:52.383Z,92.72
2022-08-26T03:19:25.726Z,92.65
2022-08-26T03:19:58.061Z,92.60
2022-08-26T03:20:29.672Z,92.51
2022-08-26T03:21:13.958Z,92.61
2022-08-26T03:21:47.266Z,92.51
2022-08-26T03:22:19.132Z,92.39
2022-08-26T03:22:53.338Z,92.38
2022-08-26T03:23:27.755Z,92.38
2022-08-26T03:24:00.766Z,92.48
2022-08-26T03:24:32.386Z,92.60
2022-08-26T03:25:06.699Z,92.47
2022-08-26T03:25:38.639Z,92.55
2022-08-26T03:26:12.174Z,92.54
2022-08-26T03:26:52.125Z,92.57
2022-08-26T03:27:24.593Z,92.63
2022-08-26T03:27:56.222Z,92.60
2022-08-26T03:28:31.721Z,92.45
2022-08-26T03:29:22.534Z,92.38
2022-08-26T03:30:13.141Z,92.27
2022-08-26T03:30:48.099Z,92.56
2022-08-26T03:31:20.507Z,92.45
2022-08-26T03:31:56.809Z,92.52
2022-08-26T03:32:28.454Z,92.49
2022-08-26T03:33:00.447Z,92.58
2022-08-26T03:33:32.040Z,92.49
2022-08-26T03:34:04.222Z,92.41
2022-08-26T03:34:35.939Z,92.61
2022-08-26T03:35:07.904Z,92.61
2022-08-26T03:35:42.831Z,92.65
2022-08-26T03:36:15.400Z,92.65
2022-08-26T03:36:47.312Z,92.47
2022-08-26T03:37:20.867Z,92.67
2022-08-26T03:37:53.020Z,92.93
2022-08-26T03:38:27.732Z,92.52
2022-08-26T03:39:00.017Z,92.47
2022-08-26T03:39:31.871Z,92.63
2022-08-26T03:40:05.458Z,92.61
2022-08-26T03:40:38.727Z,92.54
2022-08-26T03:41:12.334Z,92.53
2022-08-26T03:41:45.138Z,92.95
2022-08-26T03:42:17.005Z,92.72
2022-08-26T03:42:49.545Z,92.71
2022-08-26T03:43:22.367Z,92.77
2022-08-26T03:43:56.483Z,92.70
2022-08-26T03:44:32.679Z,92.82
2022-08-26T03:45:06.420Z,92.79
2022-08-26T03:45:38.545Z,92.88
2022-08-26T03:46:12.238Z,92.78
2022-08-26T03:46:44.118Z,92.68
2022-08-26T03:47:15.912Z,92.61
2022-08-26T03:47:47.976Z,92.64
2022-08-26T03:48:20.734Z,93.00
2022-08-26T03:48:52.360Z,93.16
2022-08-26T03:49:24.020Z,92.73
2022-08-26T03:49:57.618Z,92.70
2022-08-26T03:50:29.919Z,92.74
2022-08-26T03:51:12.546Z,92.84
2022-08-26T03:51:44.115Z,92.88
2022-08-26T03:52:16.418Z,92.91
2022-08-26T03:52:49.334Z,93.04
2022-08-26T03:53:20.960Z,92.84
2022-08-26T03:53:52.562Z,92.57
2022-08-26T03:54:24.116Z,92.66
2022-08-26T03:54:55.704Z,92.78
2022-08-26T03:55:31.966Z,92.87
2022-08-26T03:56:04.543Z,92.73
2022-08-26T03:56:36.727Z,92.58
2022-08-26T03:57:09.075Z,92.58
2022-08-26T03:57:41.190Z,92.62
2022-08-26T03:58:14.014Z,92.64
2022-08-26T03:58:45.902Z,92.73
2022-08-26T03:59:17.550Z,92.89
2022-08-26T03:59:49.322Z,92.67
2022-08-26T04:00:23.618Z,92.80
2022-08-26T04:00:55.966Z,92.88
2022-08-26T04:01:29.032Z,92.88
2022-08-26T04:02:00.874Z,92.95
2022-08-26T04:02:32.550Z,93.05
2022-08-26T04:03:04.886Z,92.95
2022-08-26T04:03:55.202Z,93.13
2022-08-26T04:04:26.756Z,93.30
2022-08-26T04:04:58.303Z,93.16
2022-08-26T04:05:29.921Z,93.12
2022-08-26T04:06:01.482Z,93.12
2022-08-26T04:06:35.929Z,93.08
2022-08-26T04:07:07.529Z,93.32
2022-08-26T04:07:40.718Z,93.44
2022-08-26T04:08:12.306Z,93.47
2022-08-26T04:08:45.134Z,93.08
2022-08-26T04:09:20.944Z,93.26
2022-08-26T04:09:57.392Z,93.02
2022-08-26T04:10:29.618Z,93.01
2022-08-26T04:11:01.600Z,93.11
2022-08-26T04:11:35.848Z,92.98
2022-08-26T04:12:10.907Z,93.09
2022-08-26T04:12:42.487Z,93.12
2022-08-26T04:13:14.219Z,93.04
2022-08-26T04:13:48.444Z,92.95
2022-08-26T04:14:24.139Z,93.00
2022-08-26T04:14:57.162Z,93.07
2022-08-26T04:15:29.494Z,93.21
2022-08-26T04:16:01.111Z,93.14
2022-08-26T04:16:34.197Z,93.11
2022-08-26T04:17:06.719Z,93.25
2022-08-26T04:17:39.286Z,93.18
2022-08-26T04:18:10.854Z,93.25
2022-08-26T04:18:46.933Z,93.40
2022-08-26T04:19:20.491Z,93.29
2022-08-26T04:19:55.131Z,93.35
2022-08-26T04:20:28.496Z,93.30
2022-08-26T04:21:00.065Z,93.43
2022-08-26T04:21:31.638Z,93.48
2022-08-26T04:22:03.388Z,93.29
2022-08-26T04:22:35.064Z,93.41
2022-08-26T04:23:06.836Z,93.35
2022-08-26T04:23:47.837Z,93.37
2022-08-26T04:24:22.736Z,93.30
2022-08-26T04:24:54.332Z,93.32
2022-08-26T04:25:27.599Z,93.19
2022-08-26T04:26:00.711Z,93.12
2022-08-26T04:26:39.558Z,93.18
2022-08-26T04:27:14.596Z,93.07
2022-08-26T04:27:46.234Z,93.11
2022-08-26T04:28:21.607Z,93.09
2022-08-26T04:28:55.530Z,93.04
2022-08-26T04:29:27.138Z,93.06
2022-08-26T04:29:59.038Z,93.01
2022-08-26T04:30:30.596Z,92.91
2022-08-26T04:31:02.587Z,92.97
2022-08-26T04:31:36.554Z,92.92
2022-08-26T04:32:08.829Z,92.91
2022-08-26T04:32:40.916Z,93.04
2022-08-26T04:33:14.076Z,92.98
2022-08-26T04:33:49.757Z,92.89
2022-08-26T04:34:22.720Z,93.15
2022-08-26T04:34:54.804Z,93.02
2022-08-26T04:35:26.752Z,92.85
2022-08-26T04:36:03.168Z,92.89
2022-08-26T04:36:35.953Z,92.87
2022-08-26T04:37:08.478Z,92.96
2022-08-26T04:37:40.115Z,92.98
2022-08-26T04:38:16.236Z,92.92
2022-08-26T04:38:48.042Z,92.98
2022-08-26T04:39:20.686Z,93.09
2022-08-26T04:39:53.487Z,92.85
2022-08-26T04:40:27.621Z,93.02
2022-08-26T04:40:59.334Z,93.00
2022-08-26T04:41:31.878Z,92.87
2022-08-26T04:42:03.532Z,92.72
2022-08-26T04:42:35.092Z,92.81
2022-08-26T04:43:06.854Z,92.81
2022-08-26T04:43:38.688Z,92.64
2022-08-26T04:44:10.607Z,92.90
2022-08-26T04:44:42.187Z,92.89
2022-08-26T04:45:14.110Z,92.75
2022-08-26T04:45:45.892Z,92.81
2022-08-26T04:46:22.014Z,92.77
2022-08-26T04:46:54.490Z,93.05
2022-08-26T04:47:32.122Z,92.93
2022-08-26T04:48:04.206Z,92.82
2022-08-26T04:48:35.876Z,92.72
2022-08-26T04:49:08.493Z,92.71
2022-08-26T04:49:40.070Z,92.71
2022-08-26T04:50:13.413Z,92.67
2022-08-26T04:50:49.584Z,92.77
2022-08-26T04:51:28.152Z,92.63
2022-08-26T04:52:00.054Z,92.76
2022-08-26T04:52:31.641Z,92.63
2022-08-26T04:53:04.309Z,92.59
2022-08-26T04:53:38.668Z,92.58
2022-08-26T04:54:10.487Z,92.58
2022-08-26T04:54:42.974Z,92.49
2022-08-26T04:55:15.944Z,92.47
2022-08-26T04:55:48.406Z,92.72
2022-08-26T04:56:20.201Z,92.48
2022-08-26T04:56:52.036Z,92.60
2022-08-26T04:57:23.596Z,92.36
2022-08-26T04:57:56.449Z,92.37
2022-08-26T04:58:28.034Z,92.28
2022-08-26T04:59:00.515Z,92.11
2022-08-26T04:59:34.978Z,92.07
2022-08-26T05:00:12.689Z,92.11
2022-08-26T05:00:45.777Z,92.05
2022-08-26T05:01:17.439Z,91.62
2022-08-26T05:01:51.344Z,91.73
2022-08-26T05:02:22.994Z,91.68
2022-08-26T05:02:56.765Z,91.60
2022-08-26T05:03:30.514Z,91.65
2022-08-26T05:04:03.112Z,91.50
2022-08-26T05:04:40.255Z,91.69
2022-08-26T05:05:13.665Z,91.60
2022-08-26T05:05:47.675Z,91.65
2022-08-26T05:06:20.560Z,91.52
2022-08-26T05:06:56.766Z,91.44
2022-08-26T05:07:35.040Z,91.45
2022-08-26T05:08:07.257Z,91.41
2022-08-26T05:08:41.105Z,91.30
2022-08-26T05:09:13.493Z,91.26
2022-08-26T05:09:46.936Z,91.12
2022-08-26T05:10:18.714Z,91.47
2022-08-26T05:10:56.513Z,91.42
2022-08-26T05:11:28.240Z,91.22
2022-08-26T05:12:00.278Z,91.38
2022-08-26T05:12:32.220Z,91.27
2022-08-26T05:13:03.795Z,91.36
2022-08-26T05:13:42.534Z,91.30
2022-08-26T05:14:14.595Z,91.27
2022-08-26T05:14:46.400Z,91.09
2022-08-26T05:15:18.664Z,91.15
2022-08-26T05:15:50.974Z,90.97
2022-08-26T05:16:22.660Z,91.03
2022-08-26T05:16:54.701Z,91.16
2022-08-26T05:17:27.274Z,90.97
2022-08-26T05:17:59.235Z,91.13
2022-08-26T05:18:34.203Z,90.74
2022-08-26T05:19:07.209Z,90.60
2022-08-26T05:19:42.902Z,90.61
2022-08-26T05:20:14.661Z,90.45
2022-08-26T05:20:49.649Z,90.79
2022-08-26T05:21:24.558Z,90.39
2022-08-26T05:21:56.168Z,90.50
2022-08-26T05:22:28.034Z,90.52
2022-08-26T05:23:02.621Z,90.91
2022-08-26T05:23:36.959Z,90.68
2022-08-26T05:24:11.737Z,90.30
2022-08-26T05:24:43.512Z,90.19
2022-08-26T05:25:15.137Z,90.09
2022-08-26T05:25:47.797Z,90.05
2022-08-26T05:26:23.102Z,89.70
2022-08-26T05:26:54.851Z,89.73
2022-08-26T05:27:28.118Z,89.45
2022-08-26T05:27:59.784Z,89.25
2022-08-26T05:28:31.521Z,89.48
2022-08-26T05:29:03.822Z,89.56
2022-08-26T05:29:35.702Z,89.46
2022-08-26T05:30:07.892Z,89.82
2022-08-26T05:30:40.381Z,89.50
2022-08-26T05:31:17.582Z,89.16
2022-08-26T05:31:51.934Z,89.02
2022-08-26T05:32:23.512Z,89.14
2022-08-26T05:32:55.486Z,89.57
2022-08-26T05:33:27.138Z,89.51
2022-08-26T05:33:59.960Z,89.36
2022-08-26T05:34:35.338Z,89.24
2022-08-26T05:35:10.354Z,89.88
2022-08-26T05:35:42.328Z,89.78
2022-08-26T05:36:17.507Z,89.64
2022-08-26T05:36:49.511Z,89.51
2022-08-26T05:37:22.003Z,89.31
2022-08-26T05:37:53.588Z,89.29
2022-08-26T05:38:25.427Z,89.49
2022-08-26T05:39:04.296Z,89.51
2022-08-26T05:39:35.865Z,89.18
2022-08-26T05:40:07.959Z,88.81
2022-08-26T05:40:46.186Z,88.86
2022-08-26T05:41:34.542Z,88.87
2022-08-26T05:42:08.428Z,89.06
2022-08-26T05:42:41.122Z,88.58
2022-08-26T05:43:13.494Z,88.69
2022-08-26T05:43:46.118Z,88.66
2022-08-26T05:44:18.858Z,88.49
2022-08-26T05:44:55.952Z,89.20
2022-08-26T05:45:27.952Z,88.59
2022-08-26T05:46:06.669Z,88.57
2022-08-26T05:46:40.670Z,88.98
2022-08-26T05:47:12.365Z,88.62
2022-08-26T05:47:43.939Z,88.44
2022-08-26T05:48:17.982Z,88.25
2022-08-26T05:48:49.783Z,88.71
2022-08-26T05:49:22.601Z,88.59
2022-08-26T05:49:58.039Z,88.51
2022-08-26T05:50:29.826Z,88.39
2022-08-26T05:51:04.956Z,88.28
2022-08-26T05:51:36.734Z,88.52
2022-08-26T05:52:08.298Z,88.11
2022-08-26T05:52:42.722Z,87.92
2022-08-26T05:53:17.447Z,87.99
2022-08-26T05:53:54.661Z,88.05
2022-08-26T05:54:26.560Z,88.41
2022-08-26T05:54:58.282Z,87.77
2022-08-26T05:55:29.960Z,88.11
2022-08-26T05:56:03.242Z,87.71
2022-08-26T05:56:35.307Z,87.68
2022-08-26T05:57:07.496Z,87.50
2022-08-26T05:57:42.871Z,87.74
2022-08-26T05:58:15.480Z,87.59
2022-08-26T05:58:49.182Z,87.39
2022-08-26T05:59:23.916Z,86.99
2022-08-26T05:59:57.352Z,86.49
2022-08-26T06:00:29.194Z,86.57
2022-08-26T06:01:05.306Z,87.20
2022-08-26T06:01:36.979Z,86.75
2022-08-26T06:02:08.597Z,86.63
2022-08-26T06:02:40.399Z,86.75
2022-08-26T06:03:12.098Z,86.78
2022-08-26T06:03:46.282Z,86.68
2022-08-26T06:04:20.594Z,86.80
2022-08-26T06:04:52.360Z,86.77
2022-08-26T06:05:24.408Z,87.01
2022-08-26T06:05:56.752Z,86.87
2022-08-26T06:06:33.092Z,86.66
2022-08-26T06:07:05.972Z,86.32
2022-08-26T06:08:00.096Z,86.83
2022-08-26T06:08:31.694Z,86.56
2022-08-26T06:09:07.191Z,86.38
2022-08-26T06:09:43.106Z,86.13
2022-08-26T06:10:31.661Z,86.57
2022-08-26T06:11:07.293Z,86.45
2022-08-26T06:11:39.696Z,86.27
2022-08-26T06:12:11.318Z,85.76
2022-08-26T06:12:43.959Z,85.74
2022-08-26T06:13:18.398Z,85.69
2022-08-26T06:13:49.948Z,85.70
2022-08-26T06:14:22.740Z,85.50
2022-08-26T06:14:55.019Z,86.01
2022-08-26T06:15:26.872Z,85.19
2022-08-26T06:15:59.363Z,84.83
2022-08-26T06:16:34.748Z,84.81
2022-08-26T06:17:06.408Z,85.30
2022-08-26T06:17:41.202Z,84.97
2022-08-26T06:18:14.915Z,85.00
2022-08-26T06:18:47.692Z,84.65
2022-08-26T06:19:19.413Z,84.63
2022-08-26T06:19:51.301Z,84.70
2022-08-26T06:20:22.910Z,84.89
2022-08-26T06:20:57.623Z,85.48
2022-08-26T06:21:32.850Z,85.45
2022-08-26T06:22:24.467Z,85.51
2022-08-26T06:23:15.990Z,84.99
2022-08-26T06:24:07.952Z,84.28
2022-08-26T06:24:58.682Z,84.44
2022-08-26T06:25:39.672Z,84.98
2022-08-26T06:26:11.920Z,85.24
2022-08-26T06:26:50.369Z,84.97
2022-08-26T06:27:22.529Z,84.49
2022-08-26T06:27:55.268Z,84.15
2022-08-26T06:28:27.424Z,84.18
2022-08-26T06:28:59.924Z,83.94
2022-08-26T06:29:36.135Z,84.88
2022-08-26T06:30:10.388Z,84.15
2022-08-26T06:30:42.658Z,83.98
2022-08-26T06:31:15.685Z,83.78
2022-08-26T06:31:47.754Z,84.24
2022-08-26T06:32:19.613Z,84.58
2022-08-26T06:32:51.520Z,84.34
2022-08-26T06:33:26.110Z,84.33
2022-08-26T06:33:58.324Z,83.53
2022-08-26T06:34:30.381Z,83.53
2022-08-26T06:35:02.378Z,83.31
2022-08-26T06:35:41.521Z,82.88
2022-08-26T06:36:25.690Z,82.94
2022-08-26T06:36:59.762Z,83.32
2022-08-26T06:37:33.007Z,83.58
2022-08-26T06:38:06.846Z,83.24
2022-08-26T06:38:38.397Z,83.05
2022-08-26T06:39:12.662Z,83.06
2022-08-26T06:39:44.244Z,82.29
2022-08-26T06:40:15.884Z,81.99
2022-08-26T06:40:52.776Z,82.44
2022-08-26T06:41:25.834Z,82.53
2022-08-26T06:41:57.431Z,82.69
2022-08-26T06:42:28.995Z,82.09
2022-08-26T06:43:00.622Z,82.13
2022-08-26T06:43:32.161Z,82.19
2022-08-26T06:44:07.064Z,82.20
2022-08-26T06:44:38.664Z,82.04
2022-08-26T06:45:12.626Z,81.96
2022-08-26T06:45:45.896Z,81.12
2022-08-26T06:46:21.612Z,81.22
2022-08-26T06:46:53.571Z,80.72
2022-08-26T06:47:25.550Z,81.08
2022-08-26T06:47:57.290Z,80.91
2022-08-26T06:48:29.142Z,81.17
2022-08-26T06:49:00.726Z,80.47
2022-08-26T06:49:32.320Z,80.14
2022-08-26T06:50:04.078Z,80.36
2022-08-26T06:50:35.813Z,79.82
2022-08-26T06:51:09.249Z,79.72
2022-08-26T06:51:41.072Z,79.48
2022-08-26T06:52:12.732Z,80.28
2022-08-26T06:52:44.317Z,80.45
2022-08-26T06:53:16.373Z,79.78
2022-08-26T06:53:49.946Z,79.88
2022-08-26T06:54:21.714Z,78.85
2022-08-26T06:54:53.346Z,79.53
2022-08-26T06:55:26.870Z,79.18
2022-08-26T06:55:58.799Z,78.25
2022-08-26T06:56:40.089Z,78.24
2022-08-26T06:57:12.113Z,78.65
2022-08-26T06:57:43.691Z,78.62
2022-08-26T06:58:15.257Z,78.44
2022-08-26T06:58:47.344Z,78.17
2022-08-26T06:59:18.906Z,77.83
2022-08-26T06:59:51.401Z,75.33
2022-08-26T07:00:23.228Z,75.79
2022-08-26T07:00:56.153Z,77.03
2022-08-26T07:01:33.019Z,71.34
2022-08-26T07:02:06.172Z,71.13
2022-08-26T07:02:39.871Z,72.83
2022-08-26T07:03:11.850Z,73.63
2022-08-26T07:03:43.595Z,73.12
2022-08-26T07:04:21.986Z,70.55
2022-08-26T07:04:54.100Z,70.13
2022-08-26T07:05:28.564Z,70.60
2022-08-26T07:06:02.777Z,71.60
2022-08-26T07:06:40.594Z,65.52
2022-08-26T07:07:15.939Z,65.32
2022-08-26T07:07:48.237Z,65.04
2022-08-26T07:08:22.321Z,64.71
2022-08-26T07:09:01.291Z,62.10
2022-08-26T07:09:35.409Z,63.90
2022-08-26T07:10:09.154Z,61.48
2022-08-26T07:10:42.502Z,61.36
2022-08-26T07:11:14.163Z,60.95
2022-08-26T07:11:46.040Z,59.45
2022-08-26T07:12:17.664Z,61.02
2022-08-26T07:12:49.752Z,62.04
2022-08-26T07:13:30.482Z,60.73
2022-08-26T07:14:02.797Z,60.46
2022-08-26T07:14:34.938Z,59.79
2022-08-26T07:15:06.846Z,60.80
2022-08-26T07:15:41.758Z,59.97
2022-08-26T07:16:16.406Z,59.86
2022-08-26T07:16:51.388Z,58.96
2022-08-26T07:17:24.967Z,59.89
2022-08-26T07:17:56.715Z,60.26
2022-08-26T07:18:28.290Z,60.55
2022-08-26T07:19:01.128Z,60.09
2022-08-26T07:19:35.499Z,59.50
2022-08-26T07:20:08.831Z,59.77